This is the latest recevied weather packets stored in our database for station/object HS5XHC-1. If no packets are shown the sender has not sent any weather packets the latest 10 day(s).
| Time | Temp. | Humidity | Pressure | Rain* | Wind** | Luminosity | Snow |
|---|---|---|---|---|---|---|---|
| 1777496116 | 25° C | 64% | 966 hPa | - | - | 0 W/m² | - |
| 1777495491 | 25° C | 68% | 966 hPa | - | - | 0 W/m² | - |
| 1777494868 | 25.56° C | 66% | 966 hPa | - | - | 0 W/m² | - |
| 1777494243 | 25.56° C | 62% | 966 hPa | - | - | 0 W/m² | - |
| 1777493619 | 26.67° C | 57% | 966 hPa | - | - | 0 W/m² | - |
| 1777492995 | 26.11° C | 60% | 966 hPa | - | - | 0 W/m² | - |
| 1777492684 | 26.11° C | 60% | 966 hPa | - | - | 0 W/m² | - |
| 1777492060 | 27.78° C | 55% | 967 hPa | - | - | 0 W/m² | - |
| 1777491436 | 27.78° C | 54% | 967 hPa | - | - | 0 W/m² | - |
| 1777490812 | 27.22° C | 55% | 967 hPa | - | - | 0 W/m² | - |
| 1777490188 | 28.33° C | 54% | 968 hPa | - | - | 0 W/m² | - |
| 1777489564 | 27.78° C | 54% | 968 hPa | - | - | 0 W/m² | - |
| 1777488940 | 28.33° C | 54% | 968 hPa | - | - | 0 W/m² | - |
| 1777488316 | 28.33° C | 54% | 968 hPa | - | - | 0 W/m² | - |
| 1777487691 | 28.33° C | 53% | 968 hPa | - | - | 0 W/m² | - |
| 1777487067 | 28.33° C | 53% | 968 hPa | - | - | 0 W/m² | - |
| 1777486443 | 28.33° C | 54% | 968 hPa | - | - | 0 W/m² | - |
| 1777485819 | 28.33° C | 53% | 968 hPa | - | - | 0 W/m² | - |
| 1777485195 | 27.78° C | 53% | 968 hPa | - | - | 0 W/m² | - |
| 1777484571 | 27.78° C | 54% | 968 hPa | - | - | 0 W/m² | - |
| 1777483947 | 27.22° C | 56% | 969 hPa | - | - | 0 W/m² | - |
| 1777483323 | 26.67° C | 57% | 969 hPa | - | - | 0 W/m² | - |
| 1777482699 | 27.22° C | 56% | 969 hPa | - | - | 0 W/m² | - |
| 1777482075 | 27.22° C | 55% | 969 hPa | - | - | 0 W/m² | - |
| 1777481451 | 27.78° C | 54% | 969 hPa | - | - | 0 W/m² | - |
* Rain since midnight (hover to see other rain measurements)
** Current wind speed in m/s (hover to see current wind gust speed)